Cape Girardeau Regional Airport
KCGI : now visible

Airfield :











YOU CAN JOIN US ON...

 
LOGIN :

Register | Disclaimer

   EN    FR    IT 

 









Legend :    VFR   Marginal VFR   IFR   Intensive IFR   Very Intensive IFR
Visi :
Ceiling :
>= 8 km
>= 3000ft
5 to 8 km
1000 to 3000 ft
1500m to 5 km
500 to 1000 ft
800 to 1500m
200 to 500 ft
< 800m
< 200 ft
Symbols :   Thunderstorms  Fog  Heavy snow  Heavy precipitations  Wind > 20 kt







- Airport Elevation : 342 ft
- IATA code : CGI


KCGI - Cape Girardeau Regional

CURRENT METAR :
  • 181753Z 19005KT 10SM -RA SCT010 OVC016 18/16 A2969 RMK AO2 RAB1656 SLP053 P0002 60028 T01780161 10183 20167 56011

EXPIRED METARs :
  • 181743Z 19010KT 10SM -RA SCT010 OVC015 18/16 A2970 RMK AO2 RAB1656 P0001 T01780156
  • 181653Z 18010KT 10SM FEW009 BKN014 OVC100 18/16 A2970 RMK AO2 RAE28 SLP056 P0001 T01780156
  • 181623Z 21007KT 10SM -RA FEW009 FEW075 OVC095 17/16 A2970 RMK AO2 P0001 T01720156
  • 181613Z 23006KT 10SM -RA SCT011 BKN075 OVC110 17/16 A2970 RMK AO2 P0001 T01720156
  • 181553Z 20009G18KT 10SM -RA OVC009 17/16 A2973 RMK AO2 SLP063 P0003 T01720156

TAF KCGI
Valid from the 18 at 19:00 until the 19 at 18:00 UTC


181832Z 1819/1918 21010KT P6SM -RA SCT007 OVC014
FM182100 34013G19KT 4SM SHRA BR OVC015
FM190600 34016G23KT 6SM -SHRA OVC015
KZME FIR / North America



MET'MAP, your aeronautical weather chart ! - Copyright ORBIFLY December 2007 - Disclaimer

ORBIFLY MET'MAP TEAM :

Programming & Development : Alexandra Zaïnal
Concept & Development : Baudouin d'Aumeries
Co-Development & Prog : Marc-Olivier Méhu
Technical & hardware support : Manuel Goepfert

Contact : metmap@orbifly.com




SOURCES & CREDITS :

   NOAA       Earth
Advisory